sensor_id;sensor_type;location;lat;lon;timestamp;temperature;humidity
40289;DHT22;28991;52.028;5.526;2023-07-20T00:00:35;25.40;51.10
40289;DHT22;28991;52.028;5.526;2023-07-20T00:03:14;25.40;51.10
40289;DHT22;28991;52.028;5.526;2023-07-20T00:05:44;25.40;51.10
40289;DHT22;28991;52.028;5.526;2023-07-20T00:08:10;25.40;51.10
40289;DHT22;28991;52.028;5.526;2023-07-20T00:10:35;25.40;51.10
40289;DHT22;28991;52.028;5.526;2023-07-20T00:13:01;25.40;51.10
40289;DHT22;28991;52.028;5.526;2023-07-20T00:15:27;25.40;51.10
40289;DHT22;28991;52.028;5.526;2023-07-20T00:17:52;25.40;51.10
40289;DHT22;28991;52.028;5.526;2023-07-20T00:20:18;25.40;51.10
40289;DHT22;28991;52.028;5.526;2023-07-20T00:22:43;25.40;51.10
40289;DHT22;28991;52.028;5.526;2023-07-20T00:25:09;25.40;51.10
40289;DHT22;28991;52.028;5.526;2023-07-20T00:27:37;25.40;51.10
40289;DHT22;28991;52.028;5.526;2023-07-20T00:30:04;25.40;51.10
40289;DHT22;28991;52.028;5.526;2023-07-20T00:32:29;25.40;51.10
40289;DHT22;28991;52.028;5.526;2023-07-20T00:34:55;25.50;51.20
40289;DHT22;28991;52.028;5.526;2023-07-20T00:37:21;25.70;51.40
40289;DHT22;28991;52.028;5.526;2023-07-20T00:39:46;25.70;51.40
40289;DHT22;28991;52.028;5.526;2023-07-20T00:42:12;25.30;51.10
40289;DHT22;28991;52.028;5.526;2023-07-20T00:44:37;25.30;51.10
40289;DHT22;28991;52.028;5.526;2023-07-20T00:47:04;25.40;51.20
40289;DHT22;28991;52.028;5.526;2023-07-20T00:49:29;25.40;51.20
40289;DHT22;28991;52.028;5.526;2023-07-20T00:51:55;25.40;51.20
40289;DHT22;28991;52.028;5.526;2023-07-20T00:54:21;25.40;51.20
40289;DHT22;28991;52.028;5.526;2023-07-20T00:56:47;25.40;51.20
40289;DHT22;28991;52.028;5.526;2023-07-20T00:59:13;25.30;51.20
40289;DHT22;28991;52.028;5.526;2023-07-20T01:01:39;25.40;51.20
40289;DHT22;28991;52.028;5.526;2023-07-20T01:04:05;25.40;51.20
40289;DHT22;28991;52.028;5.526;2023-07-20T01:06:45;25.30;51.20
40289;DHT22;28991;52.028;5.526;2023-07-20T01:12:13;25.30;51.30
40289;DHT22;28991;52.028;5.526;2023-07-20T01:14:42;25.30;51.30
40289;DHT22;28991;52.028;5.526;2023-07-20T01:17:07;25.30;51.20
40289;DHT22;28991;52.028;5.526;2023-07-20T01:19:33;25.40;51.30
40289;DHT22;28991;52.028;5.526;2023-07-20T01:22:09;25.30;51.30
40289;DHT22;28991;52.028;5.526;2023-07-20T01:27:25;25.30;51.30
40289;DHT22;28991;52.028;5.526;2023-07-20T01:30:16;25.30;51.30
40289;DHT22;28991;52.028;5.526;2023-07-20T01:32:43;25.30;51.40
40289;DHT22;28991;52.028;5.526;2023-07-20T01:35:11;25.30;51.30
40289;DHT22;28991;52.028;5.526;2023-07-20T01:37:41;25.30;51.30
40289;DHT22;28991;52.028;5.526;2023-07-20T01:40:08;25.30;51.30
40289;DHT22;28991;52.028;5.526;2023-07-20T01:42:34;25.30;51.30
40289;DHT22;28991;52.028;5.526;2023-07-20T01:45:00;25.30;51.30
40289;DHT22;28991;52.028;5.526;2023-07-20T01:47:25;25.30;51.40
40289;DHT22;28991;52.028;5.526;2023-07-20T01:49:51;25.30;51.40
40289;DHT22;28991;52.028;5.526;2023-07-20T01:52:17;25.30;51.40
40289;DHT22;28991;52.028;5.526;2023-07-20T01:54:42;25.30;51.40
40289;DHT22;28991;52.028;5.526;2023-07-20T01:57:08;25.30;51.40
40289;DHT22;28991;52.028;5.526;2023-07-20T01:59:33;25.30;51.40
40289;DHT22;28991;52.028;5.526;2023-07-20T02:01:59;25.30;51.40
40289;DHT22;28991;52.028;5.526;2023-07-20T02:04:25;25.30;51.50
40289;DHT22;28991;52.028;5.526;2023-07-20T02:06:50;25.30;51.40
40289;DHT22;28991;52.028;5.526;2023-07-20T02:09:16;25.30;51.40
40289;DHT22;28991;52.028;5.526;2023-07-20T02:11:41;25.30;51.50
40289;DHT22;28991;52.028;5.526;2023-07-20T02:14:07;25.30;51.50
40289;DHT22;28991;52.028;5.526;2023-07-20T02:16:32;25.20;51.40
40289;DHT22;28991;52.028;5.526;2023-07-20T02:18:58;25.30;51.50
40289;DHT22;28991;52.028;5.526;2023-07-20T02:21:24;25.30;51.50
40289;DHT22;28991;52.028;5.526;2023-07-20T02:23:49;25.30;51.50
40289;DHT22;28991;52.028;5.526;2023-07-20T02:26:15;25.20;51.50
40289;DHT22;28991;52.028;5.526;2023-07-20T02:28:41;25.30;51.50
40289;DHT22;28991;52.028;5.526;2023-07-20T02:31:07;25.20;51.40
40289;DHT22;28991;52.028;5.526;2023-07-20T02:33:32;25.20;51.50
40289;DHT22;28991;52.028;5.526;2023-07-20T02:35:58;25.20;51.50
40289;DHT22;28991;52.028;5.526;2023-07-20T02:38:24;25.20;51.50
40289;DHT22;28991;52.028;5.526;2023-07-20T02:40:49;25.30;51.60
40289;DHT22;28991;52.028;5.526;2023-07-20T02:43:15;25.20;51.50
40289;DHT22;28991;52.028;5.526;2023-07-20T02:45:41;25.20;51.50
40289;DHT22;28991;52.028;5.526;2023-07-20T02:48:08;25.20;51.50
40289;DHT22;28991;52.028;5.526;2023-07-20T02:50:33;25.20;51.50
40289;DHT22;28991;52.028;5.526;2023-07-20T02:53:00;25.20;51.60
40289;DHT22;28991;52.028;5.526;2023-07-20T02:55:26;25.20;51.60
40289;DHT22;28991;52.028;5.526;2023-07-20T02:57:51;25.20;51.60
40289;DHT22;28991;52.028;5.526;2023-07-20T03:00:17;25.20;51.60
40289;DHT22;28991;52.028;5.526;2023-07-20T03:02:45;25.20;51.60
40289;DHT22;28991;52.028;5.526;2023-07-20T03:05:15;25.20;51.60
40289;DHT22;28991;52.028;5.526;2023-07-20T03:07:42;25.20;51.60
40289;DHT22;28991;52.028;5.526;2023-07-20T03:10:09;25.10;51.60
40289;DHT22;28991;52.028;5.526;2023-07-20T03:12:35;25.20;51.60
40289;DHT22;28991;52.028;5.526;2023-07-20T03:15:02;25.20;51.60
40289;DHT22;28991;52.028;5.526;2023-07-20T03:17:28;25.20;51.70
40289;DHT22;28991;52.028;5.526;2023-07-20T03:19:53;25.20;51.70
40289;DHT22;28991;52.028;5.526;2023-07-20T03:22:19;25.20;51.70
40289;DHT22;28991;52.028;5.526;2023-07-20T03:24:45;25.10;51.60
40289;DHT22;28991;52.028;5.526;2023-07-20T03:27:10;25.20;51.70
40289;DHT22;28991;52.028;5.526;2023-07-20T03:29:36;25.10;51.60
40289;DHT22;28991;52.028;5.526;2023-07-20T03:32:01;25.10;51.60
40289;DHT22;28991;52.028;5.526;2023-07-20T03:34:28;25.10;51.60
40289;DHT22;28991;52.028;5.526;2023-07-20T03:36:53;25.10;51.60
40289;DHT22;28991;52.028;5.526;2023-07-20T03:39:19;25.10;51.60
40289;DHT22;28991;52.028;5.526;2023-07-20T03:41:45;25.10;51.70
40289;DHT22;28991;52.028;5.526;2023-07-20T03:44:10;25.10;51.70
40289;DHT22;28991;52.028;5.526;2023-07-20T03:46:36;25.10;51.70
40289;DHT22;28991;52.028;5.526;2023-07-20T03:49:02;25.10;51.70
40289;DHT22;28991;52.028;5.526;2023-07-20T03:51:28;25.10;51.70
40289;DHT22;28991;52.028;5.526;2023-07-20T03:53:54;25.10;51.70
40289;DHT22;28991;52.028;5.526;2023-07-20T03:56:20;25.50;52.00
40289;DHT22;28991;52.028;5.526;2023-07-20T03:58:45;25.10;51.70
40289;DHT22;28991;52.028;5.526;2023-07-20T04:01:11;25.10;51.70
40289;DHT22;28991;52.028;5.526;2023-07-20T04:03:38;25.10;51.70
40289;DHT22;28991;52.028;5.526;2023-07-20T04:06:04;25.10;51.70
40289;DHT22;28991;52.028;5.526;2023-07-20T04:08:29;25.10;51.70
40289;DHT22;28991;52.028;5.526;2023-07-20T04:10:55;25.10;51.70
40289;DHT22;28991;52.028;5.526;2023-07-20T04:13:21;25.20;51.80
40289;DHT22;28991;52.028;5.526;2023-07-20T04:15:47;25.10;51.70
40289;DHT22;28991;52.028;5.526;2023-07-20T04:18:12;25.10;51.70
40289;DHT22;28991;52.028;5.526;2023-07-20T04:20:38;25.10;51.70
40289;DHT22;28991;52.028;5.526;2023-07-20T04:23:03;25.10;51.70
40289;DHT22;28991;52.028;5.526;2023-07-20T04:25:29;25.10;51.70
40289;DHT22;28991;52.028;5.526;2023-07-20T04:28:04;25.10;51.70
40289;DHT22;28991;52.028;5.526;2023-07-20T04:30:30;25.10;51.70
40289;DHT22;28991;52.028;5.526;2023-07-20T04:32:55;25.10;51.70
40289;DHT22;28991;52.028;5.526;2023-07-20T04:36:01;25.10;51.70
40289;DHT22;28991;52.028;5.526;2023-07-20T04:38:25;25.10;51.70
40289;DHT22;28991;52.028;5.526;2023-07-20T04:40:51;25.20;51.70
40289;DHT22;28991;52.028;5.526;2023-07-20T04:43:18;25.20;51.70
40289;DHT22;28991;52.028;5.526;2023-07-20T04:45:43;25.10;51.60
40289;DHT22;28991;52.028;5.526;2023-07-20T04:48:10;25.20;51.60
40289;DHT22;28991;52.028;5.526;2023-07-20T04:50:44;25.10;51.50
40289;DHT22;28991;52.028;5.526;2023-07-20T04:53:13;25.20;51.50
40289;DHT22;28991;52.028;5.526;2023-07-20T04:55:40;25.20;51.50
40289;DHT22;28991;52.028;5.526;2023-07-20T04:58:06;25.30;51.50
40289;DHT22;28991;52.028;5.526;2023-07-20T05:00:33;25.30;51.50
40289;DHT22;28991;52.028;5.526;2023-07-20T05:02:58;25.30;51.50
40289;DHT22;28991;52.028;5.526;2023-07-20T05:05:24;25.30;51.50
40289;DHT22;28991;52.028;5.526;2023-07-20T05:07:50;25.30;51.40
40289;DHT22;28991;52.028;5.526;2023-07-20T05:10:16;25.30;51.40
40289;DHT22;28991;52.028;5.526;2023-07-20T05:12:41;25.30;51.40
40289;DHT22;28991;52.028;5.526;2023-07-20T05:15:07;25.30;51.40
40289;DHT22;28991;52.028;5.526;2023-07-20T05:17:33;25.30;51.40
40289;DHT22;28991;52.028;5.526;2023-07-20T05:19:59;25.40;51.40
40289;DHT22;28991;52.028;5.526;2023-07-20T05:22:24;25.40;51.40
40289;DHT22;28991;52.028;5.526;2023-07-20T05:24:50;25.40;51.40
40289;DHT22;28991;52.028;5.526;2023-07-20T05:27:16;25.50;51.40
40289;DHT22;28991;52.028;5.526;2023-07-20T05:29:45;25.70;51.10
40289;DHT22;28991;52.028;5.526;2023-07-20T05:32:12;26.00;50.60
40289;DHT22;28991;52.028;5.526;2023-07-20T05:34:37;26.40;49.90
40289;DHT22;28991;52.028;5.526;2023-07-20T05:37:03;26.70;49.10
40289;DHT22;28991;52.028;5.526;2023-07-20T05:39:28;27.10;48.40
40289;DHT22;28991;52.028;5.526;2023-07-20T05:41:54;27.40;47.80
40289;DHT22;28991;52.028;5.526;2023-07-20T05:44:19;27.70;47.10
40289;DHT22;28991;52.028;5.526;2023-07-20T05:46:45;28.00;46.60
40289;DHT22;28991;52.028;5.526;2023-07-20T05:49:11;28.20;46.10
40289;DHT22;28991;52.028;5.526;2023-07-20T05:51:36;28.40;45.80
40289;DHT22;28991;52.028;5.526;2023-07-20T05:54:02;28.60;46.10
40289;DHT22;28991;52.028;5.526;2023-07-20T05:56:27;28.80;45.20
40289;DHT22;28991;52.028;5.526;2023-07-20T05:58:53;29.00;44.90
40289;DHT22;28991;52.028;5.526;2023-07-20T06:01:18;29.20;44.60
40289;DHT22;28991;52.028;5.526;2023-07-20T06:03:44;29.40;44.30
40289;DHT22;28991;52.028;5.526;2023-07-20T06:06:10;29.50;43.90
40289;DHT22;28991;52.028;5.526;2023-07-20T06:08:37;29.70;43.70
40289;DHT22;28991;52.028;5.526;2023-07-20T06:11:03;29.90;43.40
40289;DHT22;28991;52.028;5.526;2023-07-20T06:13:28;30.00;43.30
40289;DHT22;28991;52.028;5.526;2023-07-20T06:15:54;30.10;43.10
40289;DHT22;28991;52.028;5.526;2023-07-20T06:18:24;30.20;43.60
40289;DHT22;28991;52.028;5.526;2023-07-20T06:20:52;30.40;43.10
40289;DHT22;28991;52.028;5.526;2023-07-20T06:23:19;30.40;43.00
40289;DHT22;28991;52.028;5.526;2023-07-20T06:25:44;30.50;43.00
40289;DHT22;28991;52.028;5.526;2023-07-20T06:28:10;30.60;43.00
40289;DHT22;28991;52.028;5.526;2023-07-20T06:30:36;30.60;42.90
40289;DHT22;28991;52.028;5.526;2023-07-20T06:33:02;30.60;42.80
40289;DHT22;28991;52.028;5.526;2023-07-20T06:35:27;30.70;42.70
40289;DHT22;28991;52.028;5.526;2023-07-20T06:37:53;30.70;42.60
40289;DHT22;28991;52.028;5.526;2023-07-20T06:40:19;30.80;42.70
40289;DHT22;28991;52.028;5.526;2023-07-20T06:42:44;30.80;42.50
40289;DHT22;28991;52.028;5.526;2023-07-20T06:45:10;30.80;42.30
40289;DHT22;28991;52.028;5.526;2023-07-20T06:47:38;30.90;42.30
40289;DHT22;28991;52.028;5.526;2023-07-20T06:50:06;30.90;42.20
40289;DHT22;28991;52.028;5.526;2023-07-20T06:52:32;30.80;42.10
40289;DHT22;28991;52.028;5.526;2023-07-20T06:54:57;30.60;42.20
40289;DHT22;28991;52.028;5.526;2023-07-20T06:57:23;30.50;42.50
40289;DHT22;28991;52.028;5.526;2023-07-20T06:59:49;30.40;42.70
40289;DHT22;28991;52.028;5.526;2023-07-20T07:05:36;30.20;42.80
40289;DHT22;28991;52.028;5.526;2023-07-20T07:08:06;30.00;43.10
40289;DHT22;28991;52.028;5.526;2023-07-20T07:10:32;29.80;43.10
40289;DHT22;28991;52.028;5.526;2023-07-20T07:12:57;29.60;43.50
40289;DHT22;28991;52.028;5.526;2023-07-20T07:15:23;29.40;43.80
40289;DHT22;28991;52.028;5.526;2023-07-20T07:17:48;29.10;44.10
40289;DHT22;28991;52.028;5.526;2023-07-20T07:20:15;28.80;44.40
40289;DHT22;28991;52.028;5.526;2023-07-20T07:22:40;28.60;44.70
40289;DHT22;28991;52.028;5.526;2023-07-20T07:25:10;28.40;44.90
40289;DHT22;28991;52.028;5.526;2023-07-20T07:27:36;28.30;45.20
40289;DHT22;28991;52.028;5.526;2023-07-20T07:30:03;28.20;45.40
40289;DHT22;28991;52.028;5.526;2023-07-20T07:32:29;28.20;45.60
40289;DHT22;28991;52.028;5.526;2023-07-20T07:34:54;28.30;45.70
40289;DHT22;28991;52.028;5.526;2023-07-20T07:37:20;28.60;45.70
40289;DHT22;28991;52.028;5.526;2023-07-20T07:39:46;28.50;45.30
40289;DHT22;28991;52.028;5.526;2023-07-20T07:42:12;28.70;45.20
40289;DHT22;28991;52.028;5.526;2023-07-20T07:44:38;28.90;45.00
40289;DHT22;28991;52.028;5.526;2023-07-20T07:47:04;29.00;44.70
40289;DHT22;28991;52.028;5.526;2023-07-20T07:49:29;29.20;44.50
40289;DHT22;28991;52.028;5.526;2023-07-20T07:51:56;29.30;44.30
40289;DHT22;28991;52.028;5.526;2023-07-20T07:54:22;29.30;44.20
40289;DHT22;28991;52.028;5.526;2023-07-20T07:56:48;29.30;44.70
40289;DHT22;28991;52.028;5.526;2023-07-20T07:59:13;29.20;44.10
40289;DHT22;28991;52.028;5.526;2023-07-20T08:01:39;29.20;44.30
40289;DHT22;28991;52.028;5.526;2023-07-20T08:04:05;29.10;44.20
40289;DHT22;28991;52.028;5.526;2023-07-20T08:16:37;29.40;44.00
40289;DHT22;28991;52.028;5.526;2023-07-20T08:19:03;29.30;43.90
40289;DHT22;28991;52.028;5.526;2023-07-20T08:21:28;29.30;43.90
40289;DHT22;28991;52.028;5.526;2023-07-20T08:23:54;29.30;43.90
40289;DHT22;28991;52.028;5.526;2023-07-20T08:26:19;29.30;43.90
40289;DHT22;28991;52.028;5.526;2023-07-20T08:28:47;29.30;43.90
40289;DHT22;28991;52.028;5.526;2023-07-20T08:31:13;29.20;43.90
40289;DHT22;28991;52.028;5.526;2023-07-20T08:33:39;29.10;44.00
40289;DHT22;28991;52.028;5.526;2023-07-20T08:36:05;29.00;44.10
40289;DHT22;28991;52.028;5.526;2023-07-20T08:38:31;28.90;44.30
40289;DHT22;28991;52.028;5.526;2023-07-20T08:40:57;28.80;44.30
40289;DHT22;28991;52.028;5.526;2023-07-20T08:43:25;28.70;44.50
40289;DHT22;28991;52.028;5.526;2023-07-20T08:45:55;28.50;44.60
40289;DHT22;28991;52.028;5.526;2023-07-20T08:48:21;28.50;44.80
40289;DHT22;28991;52.028;5.526;2023-07-20T08:50:50;28.50;44.80
40289;DHT22;28991;52.028;5.526;2023-07-20T08:53:16;28.50;44.90
40289;DHT22;28991;52.028;5.526;2023-07-20T08:55:44;28.50;44.90
40289;DHT22;28991;52.028;5.526;2023-07-20T08:58:12;28.40;44.80
40289;DHT22;28991;52.028;5.526;2023-07-20T09:00:38;28.30;44.90
40289;DHT22;28991;52.028;5.526;2023-07-20T09:03:04;28.30;45.00
40289;DHT22;28991;52.028;5.526;2023-07-20T09:05:31;28.30;45.20
40289;DHT22;28991;52.028;5.526;2023-07-20T09:07:56;28.30;45.20
40289;DHT22;28991;52.028;5.526;2023-07-20T09:10:23;28.20;45.20
40289;DHT22;28991;52.028;5.526;2023-07-20T09:12:49;28.20;45.20
40289;DHT22;28991;52.028;5.526;2023-07-20T09:15:15;28.10;45.20
40289;DHT22;28991;52.028;5.526;2023-07-20T09:17:49;28.10;45.40
40289;DHT22;28991;52.028;5.526;2023-07-20T09:20:16;28.00;45.40
40289;DHT22;28991;52.028;5.526;2023-07-20T09:22:43;28.00;45.50
40289;DHT22;28991;52.028;5.526;2023-07-20T09:25:18;27.90;45.60
40289;DHT22;28991;52.028;5.526;2023-07-20T09:27:48;27.90;45.70
40289;DHT22;28991;52.028;5.526;2023-07-20T09:30:15;27.90;45.70
40289;DHT22;28991;52.028;5.526;2023-07-20T09:32:49;27.90;45.60
40289;DHT22;28991;52.028;5.526;2023-07-20T09:35:20;28.00;45.70
40289;DHT22;28991;52.028;5.526;2023-07-20T09:38:06;28.00;45.70
40289;DHT22;28991;52.028;5.526;2023-07-20T09:40:37;28.00;45.60
40289;DHT22;28991;52.028;5.526;2023-07-20T09:43:08;28.00;45.60
40289;DHT22;28991;52.028;5.526;2023-07-20T09:45:40;28.00;45.60
40289;DHT22;28991;52.028;5.526;2023-07-20T09:48:10;27.90;45.60
40289;DHT22;28991;52.028;5.526;2023-07-20T09:50:40;27.90;45.80
40289;DHT22;28991;52.028;5.526;2023-07-20T09:53:09;27.90;45.90
40289;DHT22;28991;52.028;5.526;2023-07-20T09:55:37;27.80;46.00
40289;DHT22;28991;52.028;5.526;2023-07-20T09:58:04;27.70;46.00
40289;DHT22;28991;52.028;5.526;2023-07-20T10:00:32;27.80;46.10
40289;DHT22;28991;52.028;5.526;2023-07-20T10:02:59;27.80;46.00
40289;DHT22;28991;52.028;5.526;2023-07-20T10:05:28;27.80;45.90
40289;DHT22;28991;52.028;5.526;2023-07-20T10:07:57;27.90;46.00
40289;DHT22;28991;52.028;5.526;2023-07-20T10:10:23;27.80;45.90
40289;DHT22;28991;52.028;5.526;2023-07-20T10:12:50;27.80;46.00
40289;DHT22;28991;52.028;5.526;2023-07-20T10:15:24;27.80;46.10
40289;DHT22;28991;52.028;5.526;2023-07-20T10:18:05;27.80;46.20
40289;DHT22;28991;52.028;5.526;2023-07-20T10:20:36;27.60;46.20
40289;DHT22;28991;52.028;5.526;2023-07-20T10:23:03;27.60;46.30
40289;DHT22;28991;52.028;5.526;2023-07-20T10:25:29;27.60;46.50
40289;DHT22;28991;52.028;5.526;2023-07-20T10:27:57;27.50;46.50
40289;DHT22;28991;52.028;5.526;2023-07-20T10:30:22;27.50;46.40
40289;DHT22;28991;52.028;5.526;2023-07-20T10:32:49;27.50;46.40
40289;DHT22;28991;52.028;5.526;2023-07-20T10:35:16;27.60;46.40
40289;DHT22;28991;52.028;5.526;2023-07-20T10:37:53;27.70;46.30
40289;DHT22;28991;52.028;5.526;2023-07-20T10:40:37;27.70;46.20
40289;DHT22;28991;52.028;5.526;2023-07-20T10:43:08;27.70;46.20
40289;DHT22;28991;52.028;5.526;2023-07-20T10:45:53;27.70;46.10
40289;DHT22;28991;52.028;5.526;2023-07-20T10:51:08;27.80;46.10
40289;DHT22;28991;52.028;5.526;2023-07-20T10:53:32;27.80;46.20
40289;DHT22;28991;52.028;5.526;2023-07-20T10:56:20;27.80;46.20
40289;DHT22;28991;52.028;5.526;2023-07-20T10:58:46;27.70;46.20
40289;DHT22;28991;52.028;5.526;2023-07-20T11:01:18;27.70;46.20
40289;DHT22;28991;52.028;5.526;2023-07-20T11:03:49;27.70;46.30
40289;DHT22;28991;52.028;5.526;2023-07-20T11:09:05;27.60;46.50
40289;DHT22;28991;52.028;5.526;2023-07-20T11:15:12;27.50;46.60
40289;DHT22;28991;52.028;5.526;2023-07-20T11:17:38;27.50;46.70
40289;DHT22;28991;52.028;5.526;2023-07-20T11:20:05;27.40;46.60
40289;DHT22;28991;52.028;5.526;2023-07-20T11:22:31;27.40;46.60
40289;DHT22;28991;52.028;5.526;2023-07-20T11:24:57;27.50;46.70
40289;DHT22;28991;52.028;5.526;2023-07-20T11:27:23;27.50;46.70
40289;DHT22;28991;52.028;5.526;2023-07-20T11:29:49;27.50;46.60
40289;DHT22;28991;52.028;5.526;2023-07-20T11:32:22;27.50;46.60
40289;DHT22;28991;52.028;5.526;2023-07-20T11:34:48;27.50;46.60
40289;DHT22;28991;52.028;5.526;2023-07-20T11:37:14;27.50;46.60
40289;DHT22;28991;52.028;5.526;2023-07-20T11:39:40;27.50;46.60
40289;DHT22;28991;52.028;5.526;2023-07-20T11:42:06;27.50;46.60
40289;DHT22;28991;52.028;5.526;2023-07-20T11:44:32;27.50;46.60
40289;DHT22;28991;52.028;5.526;2023-07-20T11:47:09;27.50;46.60
40289;DHT22;28991;52.028;5.526;2023-07-20T11:49:36;27.50;46.60
40289;DHT22;28991;52.028;5.526;2023-07-20T11:52:04;27.40;46.60
40289;DHT22;28991;52.028;5.526;2023-07-20T11:54:31;27.40;46.40
40289;DHT22;28991;52.028;5.526;2023-07-20T11:57:00;27.40;46.10
40289;DHT22;28991;52.028;5.526;2023-07-20T11:59:25;27.40;45.90
40289;DHT22;28991;52.028;5.526;2023-07-20T12:01:52;27.40;46.00
40289;DHT22;28991;52.028;5.526;2023-07-20T12:04:18;27.40;46.20
40289;DHT22;28991;52.028;5.526;2023-07-20T12:06:45;27.30;46.30
40289;DHT22;28991;52.028;5.526;2023-07-20T12:09:16;27.30;46.50
40289;DHT22;28991;52.028;5.526;2023-07-20T12:11:44;27.20;46.50
40289;DHT22;28991;52.028;5.526;2023-07-20T12:14:12;27.30;46.60
40289;DHT22;28991;52.028;5.526;2023-07-20T12:16:38;27.20;46.60
40289;DHT22;28991;52.028;5.526;2023-07-20T12:19:11;27.20;46.70
40289;DHT22;28991;52.028;5.526;2023-07-20T12:21:40;27.20;46.70
40289;DHT22;28991;52.028;5.526;2023-07-20T12:24:07;27.20;46.70
40289;DHT22;28991;52.028;5.526;2023-07-20T12:26:34;27.20;46.70
40289;DHT22;28991;52.028;5.526;2023-07-20T12:29:01;27.20;46.70
40289;DHT22;28991;52.028;5.526;2023-07-20T12:31:28;27.20;46.70
40289;DHT22;28991;52.028;5.526;2023-07-20T12:33:56;27.20;46.70
40289;DHT22;28991;52.028;5.526;2023-07-20T12:36:22;27.20;46.60
40289;DHT22;28991;52.028;5.526;2023-07-20T12:38:47;27.20;46.60
40289;DHT22;28991;52.028;5.526;2023-07-20T12:41:14;27.20;46.70
40289;DHT22;28991;52.028;5.526;2023-07-20T12:43:43;27.20;46.60
40289;DHT22;28991;52.028;5.526;2023-07-20T12:46:10;27.20;46.60
40289;DHT22;28991;52.028;5.526;2023-07-20T12:48:40;27.20;46.60
40289;DHT22;28991;52.028;5.526;2023-07-20T12:51:08;27.20;46.70
40289;DHT22;28991;52.028;5.526;2023-07-20T12:53:34;27.20;46.70
40289;DHT22;28991;52.028;5.526;2023-07-20T12:55:59;27.10;46.60
40289;DHT22;28991;52.028;5.526;2023-07-20T12:58:25;27.10;46.70
40289;DHT22;28991;52.028;5.526;2023-07-20T13:00:51;27.10;46.70
40289;DHT22;28991;52.028;5.526;2023-07-20T13:03:17;27.10;46.70
40289;DHT22;28991;52.028;5.526;2023-07-20T13:05:45;27.10;46.70
40289;DHT22;28991;52.028;5.526;2023-07-20T13:08:10;27.10;46.60
40289;DHT22;28991;52.028;5.526;2023-07-20T13:10:37;27.10;46.60
40289;DHT22;28991;52.028;5.526;2023-07-20T13:13:04;27.10;46.60
40289;DHT22;28991;52.028;5.526;2023-07-20T13:15:31;27.10;46.60
40289;DHT22;28991;52.028;5.526;2023-07-20T13:18:00;28.50;47.60
40289;DHT22;28991;52.028;5.526;2023-07-20T13:20:26;27.10;46.60
40289;DHT22;28991;52.028;5.526;2023-07-20T13:22:53;27.10;46.60
40289;DHT22;28991;52.028;5.526;2023-07-20T13:25:18;27.00;46.60
40289;DHT22;28991;52.028;5.526;2023-07-20T13:27:44;27.00;46.70
40289;DHT22;28991;52.028;5.526;2023-07-20T13:30:10;27.00;46.70
40289;DHT22;28991;52.028;5.526;2023-07-20T13:32:42;27.00;46.80
40289;DHT22;28991;52.028;5.526;2023-07-20T13:35:08;27.00;46.80
40289;DHT22;28991;52.028;5.526;2023-07-20T13:37:34;27.00;46.80
40289;DHT22;28991;52.028;5.526;2023-07-20T13:39:59;26.80;46.70
40289;DHT22;28991;52.028;5.526;2023-07-20T13:42:25;26.90;46.80
40289;DHT22;28991;52.028;5.526;2023-07-20T13:44:51;26.90;47.40
40289;DHT22;28991;52.028;5.526;2023-07-20T13:47:16;26.90;46.80
40289;DHT22;28991;52.028;5.526;2023-07-20T13:49:43;26.90;46.70
40289;DHT22;28991;52.028;5.526;2023-07-20T13:52:09;26.90;46.60
40289;DHT22;28991;52.028;5.526;2023-07-20T13:54:34;26.90;46.60
40289;DHT22;28991;52.028;5.526;2023-07-20T13:57:00;26.90;46.60
40289;DHT22;28991;52.028;5.526;2023-07-20T13:59:25;26.90;46.50
40289;DHT22;28991;52.028;5.526;2023-07-20T14:01:51;27.00;46.50
40289;DHT22;28991;52.028;5.526;2023-07-20T14:04:16;26.90;46.40
40289;DHT22;28991;52.028;5.526;2023-07-20T14:06:42;26.90;46.50
40289;DHT22;28991;52.028;5.526;2023-07-20T14:09:08;27.00;46.50
40289;DHT22;28991;52.028;5.526;2023-07-20T14:11:34;27.00;46.50
40289;DHT22;28991;52.028;5.526;2023-07-20T14:13:59;27.00;46.50
40289;DHT22;28991;52.028;5.526;2023-07-20T14:16:25;27.00;46.50
40289;DHT22;28991;52.028;5.526;2023-07-20T14:18:51;27.00;46.50
40289;DHT22;28991;52.028;5.526;2023-07-20T14:21:18;27.10;46.50
40289;DHT22;28991;52.028;5.526;2023-07-20T14:23:48;27.00;46.40
40289;DHT22;28991;52.028;5.526;2023-07-20T14:26:15;27.00;46.40
40289;DHT22;28991;52.028;5.526;2023-07-20T14:28:41;27.00;46.50
40289;DHT22;28991;52.028;5.526;2023-07-20T14:31:07;26.90;46.50
40289;DHT22;28991;52.028;5.526;2023-07-20T14:33:33;26.90;46.50
40289;DHT22;28991;52.028;5.526;2023-07-20T14:35:58;26.90;46.50
40289;DHT22;28991;52.028;5.526;2023-07-20T14:38:27;26.90;46.60
40289;DHT22;28991;52.028;5.526;2023-07-20T14:40:53;26.90;46.60
40289;DHT22;28991;52.028;5.526;2023-07-20T14:43:19;26.90;46.60
40289;DHT22;28991;52.028;5.526;2023-07-20T14:45:45;26.90;46.60
40289;DHT22;28991;52.028;5.526;2023-07-20T14:48:11;26.90;46.60
40289;DHT22;28991;52.028;5.526;2023-07-20T14:50:36;27.00;46.60
40289;DHT22;28991;52.028;5.526;2023-07-20T14:53:02;26.90;46.60
40289;DHT22;28991;52.028;5.526;2023-07-20T14:55:28;26.90;46.60
40289;DHT22;28991;52.028;5.526;2023-07-20T14:57:54;26.90;46.60
40289;DHT22;28991;52.028;5.526;2023-07-20T15:00:20;26.90;46.60
40289;DHT22;28991;52.028;5.526;2023-07-20T15:02:45;26.80;46.60
40289;DHT22;28991;52.028;5.526;2023-07-20T15:05:11;26.90;46.70
40289;DHT22;28991;52.028;5.526;2023-07-20T15:07:37;26.90;46.70
40289;DHT22;28991;52.028;5.526;2023-07-20T15:10:04;26.90;46.70
40289;DHT22;28991;52.028;5.526;2023-07-20T15:12:30;26.80;46.70
40289;DHT22;28991;52.028;5.526;2023-07-20T15:15:08;26.80;46.70
40289;DHT22;28991;52.028;5.526;2023-07-20T15:17:34;26.90;46.80
40289;DHT22;28991;52.028;5.526;2023-07-20T15:20:04;26.90;46.80
40289;DHT22;28991;52.028;5.526;2023-07-20T15:22:34;26.80;46.70
40289;DHT22;28991;52.028;5.526;2023-07-20T15:25:07;26.80;46.70
40289;DHT22;28991;52.028;5.526;2023-07-20T15:27:34;26.80;46.70
40289;DHT22;28991;52.028;5.526;2023-07-20T15:30:00;26.80;46.80
40289;DHT22;28991;52.028;5.526;2023-07-20T15:32:26;26.80;46.80
40289;DHT22;28991;52.028;5.526;2023-07-20T15:34:51;26.80;46.80
40289;DHT22;28991;52.028;5.526;2023-07-20T15:37:17;26.80;46.80
40289;DHT22;28991;52.028;5.526;2023-07-20T15:39:43;26.70;46.80
40289;DHT22;28991;52.028;5.526;2023-07-20T15:42:08;26.70;46.80
40289;DHT22;28991;52.028;5.526;2023-07-20T15:44:34;26.70;46.80
40289;DHT22;28991;52.028;5.526;2023-07-20T15:47:00;26.70;46.90
40289;DHT22;28991;52.028;5.526;2023-07-20T15:49:27;26.80;47.00
40289;DHT22;28991;52.028;5.526;2023-07-20T15:51:55;26.70;46.90
40289;DHT22;28991;52.028;5.526;2023-07-20T15:54:21;26.70;46.90
40289;DHT22;28991;52.028;5.526;2023-07-20T15:56:47;26.70;47.00